Time;durP1;ratioP1;P1;durP2;ratioP2;P2;SDS_P1;SDS_P2;PMS_P1;PMS_P2;Temp;Humidity;BMP_temperature;BMP_pressure;BME280_temperature;BME280_humidity;BME280_pressure;Samples;Min_cycle;Max_cycle;Signal;HPM_P1;HPM_P2
2022/12/27 00:02:16;;;;;;;5.72;0.70;;;10.10;99.90;;;;;;4895132;29;20084;-84
2022/12/27 00:04:42;;;;;;;3.60;0.93;;;10.10;99.90;;;;;;4896068;29;20135;-81
2022/12/27 00:07:09;;;;;;;6.30;3.10;;;10.10;99.90;;;;;;4908574;29;20057;-82
2022/12/27 00:09:36;;;;;;;4.57;1.92;;;10.10;99.90;;;;;;4898278;29;20079;-81
2022/12/27 00:12:03;;;;;;;3.85;0.93;;;10.10;99.90;;;;;;4896948;29;20057;-81
2022/12/27 00:14:30;;;;;;;5.53;1.15;;;10.10;99.90;;;;;;4889525;29;20442;-81
2022/12/27 00:16:56;;;;;;;3.63;0.90;;;10.10;99.90;;;;;;4892685;29;20048;-81
2022/12/27 00:19:23;;;;;;;3.80;1.10;;;10.00;99.90;;;;;;4895144;29;20048;-82
2022/12/27 00:21:50;;;;;;;2.88;1.63;;;10.00;99.90;;;;;;4891844;29;20044;-83
2022/12/27 00:24:16;;;;;;;2.88;1.23;;;10.00;99.90;;;;;;4895955;29;20104;-82
2022/12/27 00:26:43;;;;;;;3.50;1.52;;;10.00;99.90;;;;;;4889753;29;20061;-82
2022/12/27 00:29:10;;;;;;;2.47;0.98;;;10.00;99.90;;;;;;4900710;29;20049;-82
2022/12/27 00:31:36;;;;;;;3.00;1.17;;;10.00;99.90;;;;;;4896604;29;20063;-82
2022/12/27 00:34:06;;;;;;;3.60;0.88;;;10.00;99.90;;;;;;4900537;29;20167;-82
2022/12/27 00:36:33;;;;;;;1.63;0.70;;;10.00;99.90;;;;;;4889004;29;20086;-81
2022/12/27 00:39:01;;;;;;;4.20;1.10;;;10.00;99.90;;;;;;4897479;29;20049;-82
2022/12/27 00:41:28;;;;;;;4.00;0.98;;;10.00;99.90;;;;;;4898726;29;20127;-82
2022/12/27 00:43:55;;;;;;;2.83;0.85;;;10.00;99.90;;;;;;4897285;29;20081;-82
2022/12/27 00:46:22;;;;;;;5.05;1.08;;;9.90;99.90;;;;;;4902550;29;20057;-82
2022/12/27 00:48:48;;;;;;;3.25;0.90;;;9.90;99.90;;;;;;4897586;29;20056;-82
2022/12/27 00:51:19;;;;;;;4.97;1.08;;;9.80;99.90;;;;;;4888192;29;20060;-82
2022/12/27 00:53:46;;;;;;;3.63;1.00;;;9.80;99.90;;;;;;4888706;29;20067;-83
2022/12/27 00:56:16;;;;;;;2.45;1.30;;;9.80;99.90;;;;;;4897327;29;20053;-83
2022/12/27 00:58:42;;;;;;;2.10;1.13;;;9.80;99.90;;;;;;4897850;29;20045;-82
2022/12/27 01:01:19;;;;;;;3.72;0.95;;;9.70;99.90;;;;;;4892007;29;20053;-82
2022/12/27 01:03:46;;;;;;;4.13;1.42;;;9.60;99.90;;;;;;4896654;29;20419;-82
2022/12/27 01:06:16;;;;;;;3.20;1.52;;;9.50;99.90;;;;;;4884038;29;20060;-82
2022/12/27 01:08:44;;;;;;;4.40;1.10;;;9.50;99.90;;;;;;4884871;29;20525;-82
2022/12/27 01:11:12;;;;;;;1.17;0.90;;;9.40;99.90;;;;;;4891515;29;20049;-82
2022/12/27 01:13:39;;;;;;;3.50;0.98;;;9.40;99.90;;;;;;4896077;29;20056;-82
2022/12/27 01:16:14;;;;;;;3.15;1.00;;;9.40;99.90;;;;;;4891926;29;20516;-82
2022/12/27 01:18:41;;;;;;;5.20;0.80;;;9.40;99.90;;;;;;4893905;29;20181;-82
2022/12/27 01:21:10;;;;;;;1.88;0.82;;;9.30;99.90;;;;;;4894500;29;20094;-81
2022/12/27 01:23:38;;;;;;;3.33;0.90;;;9.30;99.90;;;;;;4892347;29;20140;-81
2022/12/27 01:26:07;;;;;;;2.65;1.02;;;9.20;99.90;;;;;;4891011;29;20092;-82
2022/12/27 01:28:34;;;;;;;1.50;1.00;;;9.20;99.90;;;;;;4897764;29;20049;-82
2022/12/27 01:31:06;;;;;;;3.40;1.00;;;9.10;99.90;;;;;;4892265;29;20052;-81
2022/12/27 01:33:33;;;;;;;2.65;1.48;;;9.10;99.90;;;;;;4892878;29;20087;-82
2022/12/27 01:36:08;;;;;;;2.75;1.02;;;9.00;99.90;;;;;;4891290;29;20046;-81
2022/12/27 01:38:35;;;;;;;4.15;0.90;;;9.00;99.90;;;;;;4898472;29;20048;-81
2022/12/27 01:42:50;;;;;;;1.50;0.77;;;8.90;99.90;;;;;;4882488;29;20056;-81
2022/12/27 01:43:48;;;;;;;3.13;0.93;;;8.90;99.90;;;;;;4882525;29;20053;-82
2022/12/27 01:46:16;;;;;;;3.72;0.98;;;8.80;99.90;;;;;;4892859;29;20131;-81
2022/12/27 01:48:43;;;;;;;5.10;1.08;;;8.80;99.90;;;;;;4899371;29;20061;-82
2022/12/27 01:51:10;;;;;;;4.80;1.20;;;8.80;99.90;;;;;;4892903;29;20078;-81
2022/12/27 01:53:43;;;;;;;3.63;1.13;;;8.80;99.90;;;;;;4888326;29;20064;-81
2022/12/27 01:56:19;;;;;;;1.83;1.00;;;8.70;99.90;;;;;;4890437;29;20068;-81
2022/12/27 01:59:00;;;;;;;8.38;2.17;;;8.70;99.90;;;;;;4890198;29;20055;-81
2022/12/27 02:01:32;;;;;;;2.10;1.00;;;8.60;99.90;;;;;;4892909;29;20055;-82
2022/12/27 02:04:04;;;;;;;3.50;1.20;;;8.60;99.90;;;;;;4891258;29;20059;-80
2022/12/27 02:06:33;;;;;;;3.42;0.88;;;8.50;99.90;;;;;;4897880;29;20132;-82
2022/12/27 02:09:15;;;;;;;6.25;1.30;;;8.30;99.90;;;;;;4885995;29;20426;-82
2022/12/27 02:11:50;;;;;;;4.65;0.80;;;8.30;99.90;;;;;;4893828;29;20054;-82
2022/12/27 02:14:33;;;;;;;5.00;1.40;;;8.30;99.90;;;;;;4896945;29;20074;-81
2022/12/27 02:17:24;;;;;;;5.43;1.10;;;8.30;99.90;;;;;;4888661;29;20517;-80
2022/12/27 02:19:54;;;;;;;5.40;1.40;;;8.40;99.90;;;;;;4889723;29;20059;-82
2022/12/27 02:26:17;;;;;;;4.88;1.55;;;8.40;99.90;;;;;;4882165;29;20055;-82
2022/12/27 02:29:02;;;;;;;2.00;1.30;;;8.40;99.90;;;;;;4883006;29;20053;-81
2022/12/27 02:31:34;;;;;;;5.63;1.50;;;8.50;99.90;;;;;;4893845;29;20553;-83
2022/12/27 02:34:09;;;;;;;3.03;1.40;;;8.50;99.90;;;;;;4888294;29;20063;-82
2022/12/27 02:36:38;;;;;;;2.28;1.45;;;8.50;99.90;;;;;;4892539;29;20053;-80
2022/12/27 02:39:05;;;;;;;3.10;1.33;;;8.50;99.90;;;;;;4890617;29;20051;-82
2022/12/27 02:53:35;;;;;;;7.40;1.33;;;8.60;99.90;;;;;;4889068;29;20397;-81
2022/12/27 02:59:28;;;;;;;6.78;1.60;;;8.60;99.90;;;;;;4884947;29;20136;-82
2022/12/27 03:05:26;;;;;;;3.78;1.10;;;8.60;99.90;;;;;;4887679;29;20092;-82
2022/12/27 03:08:05;;;;;;;5.60;1.05;;;8.60;99.90;;;;;;4890690;29;20161;-82
2022/12/27 03:16:42;;;;;;;3.88;1.30;;;8.60;99.90;;;;;;4909453;29;20041;-83
2022/12/27 03:25:26;;;;;;;6.18;1.40;;;8.60;99.90;;;;;;4910744;29;20037;-84
2022/12/27 03:33:11;;;;;;;4.68;1.05;;;8.60;99.90;;;;;;4891365;29;20526;-82
2022/12/27 03:33:29;;;;;;;5.72;2.10;;;8.60;99.90;;;;;;4897957;29;20056;-82
2022/12/27 03:39:04;;;;;;;5.53;1.00;;;8.50;99.90;;;;;;4889819;29;20085;-82
2022/12/27 03:44:24;;;;;;;4.85;1.10;;;8.40;99.90;;;;;;4888732;29;20044;-82
2022/12/27 03:46:56;;;;;;;4.43;1.13;;;8.40;99.90;;;;;;4884697;29;20049;-81
2022/12/27 03:49:47;;;;;;;4.65;1.20;;;8.40;99.90;;;;;;4894856;29;20056;-82
2022/12/27 03:52:33;;;;;;;5.10;1.38;;;8.30;99.90;;;;;;4895489;29;20056;-82
2022/12/27 03:55:01;;;;;;;7.82;1.30;;;8.30;99.90;;;;;;4895442;29;20062;-82
2022/12/27 03:57:28;;;;;;;1.88;1.00;;;8.30;99.90;;;;;;4890367;29;20511;-80
2022/12/27 03:59:55;;;;;;;4.03;1.10;;;8.20;99.90;;;;;;4913224;29;20052;-82
2022/12/27 04:02:22;;;;;;;8.38;1.02;;;8.20;99.90;;;;;;4904330;29;20060;-82
2022/12/27 04:04:49;;;;;;;3.88;1.08;;;8.20;99.90;;;;;;4898206;29;20124;-81
2022/12/27 04:07:16;;;;;;;5.50;1.10;;;8.10;99.90;;;;;;4898562;29;20059;-83
2022/12/27 04:34:41;;;;;;;3.25;1.30;;;7.40;99.90;;;;;;4891384;29;20052;-83
2022/12/27 04:37:14;;;;;;;4.45;1.23;;;7.30;99.90;;;;;;4895559;29;20140;-82
2022/12/27 04:54:55;;;;;;;5.18;1.27;;;7.30;99.90;;;;;;4890767;29;20052;-82
2022/12/27 04:56:16;;;;;;;6.20;1.20;;;7.30;99.90;;;;;;4899217;29;20143;-80
2022/12/27 05:02:01;;;;;;;5.82;1.05;;;7.30;99.90;;;;;;4895237;29;20052;-82
2022/12/27 05:04:14;;;;;;;5.57;1.50;;;7.30;99.90;;;;;;4893759;29;20056;-81
2022/12/27 05:06:41;;;;;;;4.90;1.25;;;7.30;99.90;;;;;;4887118;29;20052;-83
2022/12/27 05:14:38;;;;;;;4.28;1.23;;;7.10;99.90;;;;;;4893120;29;20061;-81
2022/12/27 05:17:05;;;;;;;5.03;1.17;;;7.10;99.90;;;;;;4888474;29;20063;-83
2022/12/27 05:19:32;;;;;;;3.63;1.33;;;7.10;99.90;;;;;;4894136;29;20531;-81
2022/12/27 05:27:29;;;;;;;5.40;1.25;;;7.10;99.90;;;;;;4897451;29;20140;-82
2022/12/27 05:29:56;;;;;;;5.55;1.40;;;7.20;99.90;;;;;;4893611;29;20693;-82
2022/12/27 05:32:22;;;;;;;4.65;1.30;;;7.20;99.90;;;;;;4887980;29;20052;-81
2022/12/27 05:34:49;;;;;;;7.13;2.05;;;7.20;99.90;;;;;;4894012;29;20052;-82
2022/12/27 05:37:15;;;;;;;11.73;2.42;;;7.20;99.90;;;;;;4886269;29;20053;-83
2022/12/27 05:39:42;;;;;;;9.88;3.35;;;7.20;99.90;;;;;;4891593;29;20052;-82
2022/12/27 05:42:09;;;;;;;13.00;3.70;;;7.20;99.90;;;;;;4898674;29;20079;-83
2022/12/27 05:44:36;;;;;;;8.80;2.20;;;7.20;99.90;;;;;;4891023;29;20049;-82
2022/12/27 05:47:03;;;;;;;3.65;1.23;;;7.20;99.90;;;;;;4899420;29;20055;-83
2022/12/27 05:49:29;;;;;;;8.65;2.00;;;7.30;99.90;;;;;;4901994;29;20048;-82
2022/12/27 05:51:56;;;;;;;6.55;1.70;;;7.30;99.90;;;;;;4896598;29;20057;-82
2022/12/27 05:54:23;;;;;;;9.65;1.92;;;7.30;99.90;;;;;;4905800;29;20057;-84
2022/12/27 05:56:49;;;;;;;5.22;1.90;;;7.30;99.90;;;;;;4899985;29;20120;-81
2022/12/27 05:59:16;;;;;;;5.85;1.90;;;7.30;99.90;;;;;;4897519;29;20059;-81
2022/12/27 06:01:42;;;;;;;4.90;1.70;;;7.40;99.90;;;;;;4887105;29;20057;-82
2022/12/27 06:04:09;;;;;;;5.28;1.88;;;7.40;99.90;;;;;;4894700;29;20056;-81
2022/12/27 06:06:36;;;;;;;6.20;2.38;;;7.40;99.90;;;;;;4886508;29;20571;-81
2022/12/27 06:09:03;;;;;;;5.35;1.77;;;7.40;99.90;;;;;;4891772;29;20610;-82
2022/12/27 06:11:29;;;;;;;6.97;1.63;;;7.40;99.90;;;;;;4889591;29;20076;-81
2022/12/27 06:13:56;;;;;;;6.57;1.60;;;7.40;99.90;;;;;;4893696;29;20082;-81
2022/12/27 06:16:23;;;;;;;4.57;1.40;;;7.40;99.90;;;;;;4888206;29;20091;-82
2022/12/27 06:18:49;;;;;;;4.45;1.17;;;7.40;99.90;;;;;;4884810;29;20401;-82
2022/12/27 06:21:19;;;;;;;3.60;1.42;;;7.40;99.90;;;;;;4892352;29;20045;-81
2022/12/27 06:23:47;;;;;;;6.22;1.70;;;7.40;99.90;;;;;;4895584;29;20056;-82
2022/12/27 06:26:17;;;;;;;3.17;1.25;;;7.40;99.90;;;;;;4891310;29;20479;-81
2022/12/27 06:28:43;;;;;;;6.40;1.48;;;7.50;99.90;;;;;;4886920;29;20057;-83
2022/12/27 06:31:10;;;;;;;8.43;2.47;;;7.50;99.90;;;;;;4914297;29;20052;-81
2022/12/27 06:33:37;;;;;;;3.63;1.95;;;7.40;99.90;;;;;;4895214;29;20476;-81
2022/12/27 06:36:05;;;;;;;7.05;1.63;;;7.40;99.90;;;;;;4887143;29;20503;-80
2022/12/27 06:38:32;;;;;;;2.20;1.17;;;7.40;99.90;;;;;;4898364;29;20128;-80
2022/12/27 06:41:02;;;;;;;6.28;2.38;;;7.50;99.90;;;;;;4890632;29;20117;-80
2022/12/27 06:43:29;;;;;;;;;;;7.50;99.90;;;;;;4897933;29;20059;-81
2022/12/27 06:45:58;;;;;;;5.47;0.95;;;7.50;99.90;;;;;;4892487;29;19974;-81
2022/12/27 06:48:25;;;;;;;5.70;1.27;;;7.50;99.90;;;;;;4897941;29;20064;-81
2022/12/27 06:50:52;;;;;;;5.03;1.05;;;7.50;99.90;;;;;;4894760;29;20055;-82
2022/12/27 06:53:19;;;;;;;6.10;1.10;;;7.40;99.90;;;;;;4896592;29;20052;-80
2022/12/27 06:55:46;;;;;;;5.10;1.30;;;7.40;99.90;;;;;;4881744;29;20068;-81
2022/12/27 06:58:12;;;;;;;6.65;1.45;;;7.30;99.90;;;;;;4881634;29;20434;-79
2022/12/27 07:00:40;;;;;;;6.05;1.15;;;7.30;99.90;;;;;;4887094;29;20045;-82
2022/12/27 07:03:07;;;;;;;4.65;1.33;;;7.20;99.90;;;;;;4894976;29;20075;-80
2022/12/27 07:05:36;;;;;;;1.80;0.95;;;7.20;99.90;;;;;;4894513;29;20056;-82
2022/12/27 07:08:03;;;;;;;5.45;1.10;;;7.20;99.90;;;;;;4886016;29;20052;-81
2022/12/27 07:10:30;;;;;;;8.18;1.77;;;7.20;99.90;;;;;;4897536;29;20057;-83
2022/12/27 07:12:56;;;;;;;4.68;1.20;;;7.20;99.90;;;;;;4885343;29;20063;-81
2022/12/27 07:15:23;;;;;;;4.05;1.23;;;7.20;99.90;;;;;;4891229;29;20053;-82
2022/12/27 07:17:50;;;;;;;1.65;0.98;;;7.20;99.90;;;;;;4886803;29;20057;-82
2022/12/27 07:20:16;;;;;;;4.72;1.10;;;7.20;99.90;;;;;;4891585;29;20059;-82
2022/12/27 07:22:43;;;;;;;5.85;1.50;;;7.20;99.90;;;;;;4887409;29;20049;-82
2022/12/27 07:25:10;;;;;;;4.25;1.75;;;7.30;99.90;;;;;;4888531;29;20052;-81
2022/12/27 07:27:36;;;;;;;4.15;1.80;;;7.30;99.90;;;;;;4889079;29;20419;-81
2022/12/27 07:30:04;;;;;;;4.72;1.25;;;7.30;99.90;;;;;;4891177;29;20537;-80
2022/12/27 07:32:31;;;;;;;3.20;1.27;;;7.30;99.90;;;;;;4891170;29;20061;-82
2022/12/27 07:34:57;;;;;;;6.78;1.45;;;7.30;99.90;;;;;;4891792;29;20064;-81
2022/12/27 07:37:24;;;;;;;5.65;1.65;;;7.30;99.90;;;;;;4892545;29;20069;-82
2022/12/27 07:39:51;;;;;;;3.53;1.30;;;7.40;99.90;;;;;;4893103;29;20104;-82
2022/12/27 07:42:18;;;;;;;3.80;1.10;;;7.40;99.90;;;;;;4894682;29;20503;-82
2022/12/27 07:44:44;;;;;;;4.60;1.08;;;7.50;99.90;;;;;;4886780;29;20159;-82
2022/12/27 07:47:11;;;;;;;9.50;1.50;;;7.50;99.90;;;;;;4884867;29;20056;-81
2022/12/27 07:49:38;;;;;;;9.88;1.33;;;7.60;99.90;;;;;;4884654;29;20060;-83
2022/12/27 07:52:04;;;;;;;6.28;1.30;;;7.60;99.90;;;;;;4892214;29;20048;-82
2022/12/27 07:54:31;;;;;;;5.72;1.38;;;7.70;99.90;;;;;;4901167;29;20052;-83
2022/12/27 07:56:57;;;;;;;4.93;1.10;;;7.80;99.90;;;;;;4893329;29;20061;-82
2022/12/27 07:59:26;;;;;;;5.05;1.02;;;7.80;99.90;;;;;;4889695;29;20053;-83
2022/12/27 08:02:05;;;;;;;6.93;1.70;;;7.90;99.90;;;;;;4896791;29;20052;-83
2022/12/27 08:04:35;;;;;;;4.50;1.35;;;7.80;99.90;;;;;;4899750;29;20420;-81
2022/12/27 08:07:08;;;;;;;;;;;7.90;99.90;;;;;;4895893;29;20537;-81
2022/12/27 08:09:38;;;;;;;5.60;1.30;;;7.90;99.90;;;;;;4888203;29;19923;-80
2022/12/27 08:12:06;;;;;;;7.07;1.60;;;8.00;99.90;;;;;;4894704;29;20121;-82
2022/12/27 08:14:33;;;;;;;4.28;1.10;;;8.10;99.90;;;;;;4888208;29;20049;-82
2022/12/27 08:17:11;;;;;;;4.97;1.23;;;8.10;99.90;;;;;;4912043;29;20061;-84
2022/12/27 08:19:37;;;;;;;7.00;1.05;;;8.20;99.90;;;;;;4930862;29;20041;-84
2022/12/27 08:22:04;;;;;;;4.65;1.27;;;8.20;99.90;;;;;;4914587;29;20044;-83
2022/12/27 08:24:31;;;;;;;6.65;1.75;;;8.20;99.90;;;;;;4915952;29;20041;-83
2022/12/27 08:26:58;;;;;;;3.30;1.30;;;8.20;99.90;;;;;;4915739;29;20033;-83
2022/12/27 08:29:24;;;;;;;6.00;1.42;;;8.30;99.90;;;;;;4892543;29;20057;-81
2022/12/27 08:31:51;;;;;;;6.35;2.50;;;8.30;99.90;;;;;;4897865;29;20052;-81
2022/12/27 08:34:18;;;;;;;9.35;5.03;;;8.30;99.90;;;;;;4891614;29;20063;-82
2022/12/27 08:36:44;;;;;;;7.20;3.55;;;8.30;99.90;;;;;;4893549;29;20065;-81
2022/12/27 08:39:21;;;;;;;3.20;1.08;;;8.30;99.90;;;;;;4896365;29;20136;-82
2022/12/27 08:41:48;;;;;;;7.53;2.25;;;8.30;99.90;;;;;;4897082;29;20165;-81
2022/12/27 08:44:14;;;;;;;7.15;1.90;;;8.30;99.90;;;;;;4892461;29;20048;-82
2022/12/27 08:46:41;;;;;;;7.30;2.13;;;8.40;99.90;;;;;;4891142;29;20490;-82
2022/12/27 08:49:08;;;;;;;2.42;1.00;;;8.50;99.90;;;;;;4890822;29;20114;-81
2022/12/27 08:51:35;;;;;;;1.95;0.90;;;8.50;99.90;;;;;;4894168;29;20086;-81
2022/12/27 08:54:07;;;;;;;3.63;1.10;;;8.50;99.90;;;;;;4892795;29;20048;-82
2022/12/27 08:56:34;;;;;;;6.43;1.58;;;8.50;99.90;;;;;;4891925;29;20080;-82
2022/12/27 08:59:01;;;;;;;1.85;1.00;;;8.60;99.90;;;;;;4899295;29;20049;-81
2022/12/27 09:01:27;;;;;;;4.85;1.13;;;8.60;99.90;;;;;;4891137;29;20055;-82
2022/12/27 09:03:54;;;;;;;3.50;0.95;;;8.60;99.90;;;;;;4893432;29;20226;-82
2022/12/27 09:06:23;;;;;;;3.22;1.23;;;8.60;99.90;;;;;;4892224;29;20053;-81
2022/12/27 09:08:51;;;;;;;3.60;1.02;;;8.60;99.90;;;;;;4894500;29;20053;-83
2022/12/27 09:11:21;;;;;;;1.17;0.80;;;8.60;99.90;;;;;;4892307;29;20550;-82
2022/12/27 09:13:49;;;;;;;2.90;1.00;;;8.70;99.90;;;;;;4893021;29;20056;-82
2022/12/27 09:16:23;;;;;;;2.20;1.23;;;8.70;99.90;;;;;;4889671;29;20052;-82
2022/12/27 09:18:52;;;;;;;3.40;1.27;;;8.70;99.90;;;;;;4892741;29;20056;-83
2022/12/27 09:21:20;;;;;;;3.67;0.98;;;8.70;99.90;;;;;;4890499;29;20140;-82
2022/12/27 09:23:48;;;;;;;3.60;1.20;;;8.70;99.90;;;;;;4894680;29;20063;-83
2022/12/27 09:26:16;;;;;;;4.40;1.00;;;8.80;99.90;;;;;;4886124;29;20427;-82
2022/12/27 09:28:44;;;;;;;3.47;1.02;;;8.80;99.90;;;;;;4891515;29;20512;-82
2022/12/27 09:31:12;;;;;;;5.13;1.10;;;8.70;99.90;;;;;;4894960;29;20057;-83
2022/12/27 09:33:40;;;;;;;3.92;1.08;;;8.80;99.90;;;;;;4906494;29;20056;-82
2022/12/27 09:36:10;;;;;;;1.85;0.98;;;8.80;99.90;;;;;;4887622;29;20163;-83
2022/12/27 09:38:37;;;;;;;3.03;0.75;;;8.80;99.90;;;;;;4893974;29;20059;-82
2022/12/27 09:41:13;;;;;;;5.53;0.88;;;8.70;99.90;;;;;;4888014;29;20049;-82
2022/12/27 09:43:55;;;;;;;5.38;1.08;;;8.80;99.90;;;;;;4894222;29;20063;-82
2022/12/27 09:46:31;;;;;;;4.50;1.10;;;8.70;99.90;;;;;;4886310;29;20059;-83
2022/12/27 09:48:58;;;;;;;4.07;1.20;;;8.70;99.90;;;;;;4889929;29;20071;-83
2022/12/27 09:51:42;;;;;;;5.28;1.00;;;8.80;99.90;;;;;;4885159;29;20451;-82
2022/12/27 09:54:21;;;;;;;5.13;1.10;;;8.80;99.90;;;;;;4895004;29;20055;-82
2022/12/27 09:56:50;;;;;;;3.90;0.93;;;8.80;99.90;;;;;;4882850;29;20067;-83
2022/12/27 09:59:43;;;;;;;3.17;1.52;;;8.80;99.90;;;;;;4891828;29;20049;-83
2022/12/27 10:02:20;;;;;;;2.25;0.90;;;8.70;99.90;;;;;;4898691;29;20463;-82
2022/12/27 10:04:48;;;;;;;5.93;1.63;;;8.70;99.90;;;;;;4890765;29;20073;-83
2022/12/27 10:08:03;;;;;;;3.25;1.20;;;8.70;99.90;;;;;;4897589;29;20052;-81
2022/12/27 10:10:48;;;;;;;3.85;1.00;;;8.60;99.90;;;;;;4893363;29;20059;-83
2022/12/27 10:13:39;;;;;;;1.33;0.82;;;8.70;99.90;;;;;;4902502;29;20052;-82
2022/12/27 10:16:31;;;;;;;3.25;0.77;;;8.70;99.90;;;;;;4887979;29;20498;-81
2022/12/27 10:19:17;;;;;;;2.25;0.80;;;8.60;99.90;;;;;;4889501;29;20490;-82
2022/12/27 10:21:56;;;;;;;3.67;1.10;;;8.60;99.90;;;;;;4889581;29;20124;-83
2022/12/27 10:24:31;;;;;;;6.18;1.13;;;8.70;99.90;;;;;;4888468;29;20424;-81
2022/12/27 10:26:58;;;;;;;3.28;1.00;;;8.70;99.90;;;;;;4900374;29;20060;-82
2022/12/27 10:29:27;;;;;;;3.40;0.98;;;8.70;99.90;;;;;;4896364;29;20053;-82
2022/12/27 10:31:54;;;;;;;3.25;1.02;;;8.70;99.90;;;;;;4889237;29;20079;-82
2022/12/27 10:34:23;;;;;;;5.47;1.25;;;8.80;99.90;;;;;;4889285;29;20049;-82
2022/12/27 10:36:51;;;;;;;4.47;1.15;;;8.80;99.90;;;;;;4892699;29;20057;-82
2022/12/27 10:39:25;;;;;;;1.35;0.90;;;8.80;99.90;;;;;;4896203;29;20059;-82
2022/12/27 10:42:25;;;;;;;2.78;0.82;;;8.80;99.90;;;;;;4882955;29;20140;-83
2022/12/27 10:45:27;;;;;;;7.25;1.13;;;8.90;99.90;;;;;;4891897;29;20089;-81
2022/12/27 10:47:56;;;;;;;2.13;0.98;;;8.90;99.90;;;;;;4902542;29;20053;-82
2022/12/27 10:50:27;;;;;;;2.47;1.00;;;8.90;99.90;;;;;;4903634;29;20053;-80
2022/12/27 10:52:54;;;;;;;1.90;1.10;;;9.00;99.90;;;;;;4889196;29;20053;-82
2022/12/27 10:55:37;;;;;;;4.63;1.00;;;9.00;99.90;;;;;;4890567;29;20106;-82
2022/12/27 10:58:47;;;;;;;5.40;1.08;;;9.10;99.90;;;;;;4898891;29;20517;-81
2022/12/27 11:01:24;;;;;;;3.28;1.05;;;9.10;99.90;;;;;;4882369;29;20049;-82
2022/12/27 11:04:15;;;;;;;1.90;1.00;;;9.10;99.90;;;;;;4882589;29;20049;-82
2022/12/27 11:07:11;;;;;;;6.07;1.17;;;9.10;99.90;;;;;;4893960;29;20049;-81
2022/12/27 11:09:42;;;;;;;2.88;1.20;;;9.20;99.90;;;;;;4890162;29;20049;-81
2022/12/27 11:12:20;;;;;;;1.60;0.95;;;9.20;99.90;;;;;;4896315;29;20550;-81
2022/12/27 11:14:56;;;;;;;2.42;1.10;;;9.20;99.90;;;;;;4895414;29;20059;-81
2022/12/27 11:17:27;;;;;;;2.42;1.13;;;9.20;99.90;;;;;;4886598;29;20049;-81
2022/12/27 11:19:57;;;;;;;4.47;1.23;;;9.20;99.90;;;;;;4894024;29;20586;-81
2022/12/27 11:22:25;;;;;;;1.83;0.95;;;9.30;99.90;;;;;;4882811;29;20504;-83
2022/12/27 11:24:54;;;;;;;2.00;1.20;;;9.30;99.90;;;;;;4880834;29;20052;-82
2022/12/27 11:27:24;;;;;;;3.83;1.77;;;9.30;99.90;;;;;;4899082;29;20117;-82
2022/12/27 11:29:54;;;;;;;4.28;1.60;;;9.30;99.90;;;;;;4898425;29;20049;-82
2022/12/27 11:32:22;;;;;;;5.90;1.27;;;9.30;99.90;;;;;;4889401;29;20113;-82
2022/12/27 11:34:52;;;;;;;2.00;1.40;;;9.40;99.90;;;;;;4887443;29;20057;-80
2022/12/27 11:37:23;;;;;;;3.15;1.60;;;9.40;99.90;;;;;;4889430;29;20475;-82
2022/12/27 11:40:11;;;;;;;7.35;1.27;;;9.40;99.90;;;;;;4894582;29;20060;-82
2022/12/27 11:42:44;;;;;;;3.40;1.35;;;9.40;99.90;;;;;;4888498;29;20067;-82
2022/12/27 11:45:24;;;;;;;2.22;0.98;;;9.40;99.90;;;;;;4892975;29;20136;-81
2022/12/27 11:48:01;;;;;;;6.30;1.65;;;9.50;99.90;;;;;;4895814;29;20121;-81
2022/12/27 11:50:27;;;;;;;4.22;0.82;;;9.50;99.90;;;;;;4896626;29;20064;-79
2022/12/27 11:53:09;;;;;;;2.35;1.08;;;9.60;99.90;;;;;;4887256;29;20056;-82
2022/12/27 11:55:54;;;;;;;8.05;1.00;;;9.60;99.90;;;;;;4894406;29;20053;-81
2022/12/27 11:58:24;;;;;;;3.42;1.20;;;9.60;99.90;;;;;;4887645;29;20053;-81
2022/12/27 12:01:14;;;;;;;8.83;1.70;;;9.70;99.90;;;;;;4887247;29;20055;-83
2022/12/27 12:04:18;;;;;;;3.83;1.15;;;9.70;99.90;;;;;;4897704;29;20049;-83
2022/12/27 12:07:03;;;;;;;5.50;1.00;;;9.70;99.90;;;;;;4892283;29;20121;-81
2022/12/27 12:09:43;;;;;;;4.60;0.82;;;9.70;99.90;;;;;;4888915;29;20053;-81
2022/12/27 12:12:29;;;;;;;3.35;0.80;;;9.80;99.90;;;;;;4890792;29;20061;-81
2022/12/27 12:15:12;;;;;;;2.40;1.08;;;9.80;99.90;;;;;;4892375;29;20147;-81
2022/12/27 12:18:09;;;;;;;3.33;0.98;;;9.80;99.90;;;;;;4892608;29;20049;-81
2022/12/27 12:21:13;;;;;;;1.67;0.93;;;9.80;99.90;;;;;;4892156;29;20053;-82
2022/12/27 12:24:00;;;;;;;5.80;1.10;;;9.90;99.90;;;;;;4890854;29;20140;-81
2022/12/27 12:26:42;;;;;;;4.97;1.08;;;9.90;99.90;;;;;;4891150;29;20459;-82
2022/12/27 12:29:21;;;;;;;3.38;1.00;;;10.00;99.90;;;;;;4891247;29;20418;-83
2022/12/27 12:32:12;;;;;;;3.47;0.80;;;10.00;99.90;;;;;;4900579;29;20058;-81
2022/12/27 12:34:58;;;;;;;4.25;1.15;;;10.10;99.90;;;;;;4897960;29;20053;-82
2022/12/27 12:37:45;;;;;;;2.85;0.95;;;10.10;99.90;;;;;;4891938;29;20391;-82
2022/12/27 12:40:53;;;;;;;3.15;1.10;;;10.10;99.90;;;;;;4891393;29;20045;-81
2022/12/27 12:43:55;;;;;;;5.88;1.10;;;10.20;99.90;;;;;;4893968;29;20054;-82
2022/12/27 12:46:44;;;;;;;7.55;1.85;;;10.20;99.90;;;;;;4891188;29;20088;-81
2022/12/27 12:49:32;;;;;;;5.72;1.00;;;10.20;99.90;;;;;;4889496;29;20068;-81
2022/12/27 12:52:34;;;;;;;4.18;1.02;;;10.20;99.90;;;;;;4889003;29;20053;-79
2022/12/27 12:55:01;;;;;;;4.78;1.38;;;10.20;99.90;;;;;;4850685;29;20397;-80
2022/12/27 12:57:53;;;;;;;3.88;1.20;;;10.20;99.90;;;;;;4884165;29;20474;-81
2022/12/27 13:00:58;;;;;;;4.05;1.50;;;10.20;99.90;;;;;;4890134;29;20049;-80
2022/12/27 13:03:44;;;;;;;6.50;1.73;;;10.20;99.90;;;;;;4892777;29;20061;-79
2022/12/27 13:06:20;;;;;;;3.72;1.42;;;10.20;99.90;;;;;;4892853;29;20057;-80
2022/12/27 13:09:12;;;;;;;4.95;1.85;;;10.30;99.90;;;;;;4889581;29;20059;-80
2022/12/27 13:11:38;;;;;;;5.22;1.10;;;10.30;99.90;;;;;;4896685;29;20049;-80
2022/12/27 13:14:41;;;;;;;3.13;1.15;;;10.30;99.90;;;;;;4888137;29;20132;-81
2022/12/27 13:17:33;;;;;;;4.43;1.50;;;10.30;99.90;;;;;;4886764;29;20059;-80
2022/12/27 13:20:17;;;;;;;5.15;1.60;;;10.30;99.90;;;;;;4910977;29;20096;-83
2022/12/27 13:23:01;;;;;;;7.03;1.48;;;10.30;99.90;;;;;;4912117;29;20092;-83
2022/12/27 13:25:57;;;;;;;7.45;2.00;;;10.20;99.90;;;;;;4929828;29;20294;-82
2022/12/27 13:28:34;;;;;;;5.78;2.00;;;10.20;99.90;;;;;;4912499;29;20092;-83
2022/12/27 13:31:25;;;;;;;7.68;2.03;;;10.20;99.90;;;;;;4896042;29;20067;-81
2022/12/27 13:34:31;;;;;;;6.00;2.30;;;10.20;99.90;;;;;;4893151;29;20056;-81
2022/12/27 13:37:05;;;;;;;7.60;2.20;;;10.20;99.90;;;;;;4893872;29;20056;-82
2022/12/27 13:40:02;;;;;;;7.53;1.63;;;10.20;99.90;;;;;;4892508;29;20056;-81
2022/12/27 13:42:29;;;;;;;6.78;1.58;;;10.20;99.90;;;;;;4877458;29;20048;-80
2022/12/27 13:45:25;;;;;;;5.13;1.20;;;10.20;99.90;;;;;;4889592;29;20181;-82
2022/12/27 13:48:27;;;;;;;5.72;1.15;;;10.20;99.90;;;;;;4877007;29;20063;-80
2022/12/27 13:51:03;;;;;;;2.95;0.70;;;10.20;99.90;;;;;;4890578;29;20151;-82
2022/12/27 13:54:04;;;;;;;3.88;1.00;;;10.10;99.90;;;;;;4891754;29;20056;-80
2022/12/27 13:56:41;;;;;;;2.80;1.20;;;10.10;99.90;;;;;;4892997;29;20396;-81
2022/12/27 13:59:45;;;;;;;6.43;1.02;;;10.10;99.90;;;;;;4890353;29;20128;-81
2022/12/27 14:02:21;;;;;;;3.67;1.65;;;10.10;99.90;;;;;;4887867;29;20053;-81
2022/12/27 14:05:04;;;;;;;1.98;0.90;;;10.10;99.90;;;;;;4892131;29;20506;-80
2022/12/27 14:07:46;;;;;;;6.85;1.50;;;10.10;99.90;;;;;;4888669;29;20084;-80
2022/12/27 14:10:37;;;;;;;4.57;1.15;;;10.10;99.90;;;;;;4896307;29;20048;-83
2022/12/27 14:13:09;;;;;;;3.05;1.00;;;10.10;99.90;;;;;;4890409;29;20068;-81
2022/12/27 14:15:41;;;;;;;7.22;1.67;;;10.10;99.90;;;;;;4889055;29;20061;-82
2022/12/27 14:18:36;;;;;;;2.67;1.10;;;10.10;99.90;;;;;;4895358;29;20132;-81
2022/12/27 14:21:13;;;;;;;5.40;1.20;;;10.10;99.90;;;;;;4898087;29;20138;-82
2022/12/27 14:23:56;;;;;;;3.85;0.88;;;10.10;99.90;;;;;;4889646;29;20057;-82
2022/12/27 14:26:49;;;;;;;4.32;1.08;;;10.00;99.90;;;;;;4890737;29;20059;-81
2022/12/27 14:29:45;;;;;;;2.28;0.77;;;10.00;99.90;;;;;;4893812;29;20399;-81
2022/12/27 14:32:30;;;;;;;2.63;1.02;;;10.00;99.90;;;;;;4888340;29;20068;-81
2022/12/27 14:35:39;;;;;;;2.80;0.90;;;9.90;99.90;;;;;;4891653;29;20053;-82
2022/12/27 14:38:41;;;;;;;2.72;0.98;;;9.90;99.90;;;;;;4874043;29;20570;-81
2022/12/27 14:41:44;;;;;;;4.82;1.30;;;9.80;99.90;;;;;;4886318;29;20049;-82
2022/12/27 14:44:34;;;;;;;4.28;1.20;;;9.80;99.90;;;;;;4893020;29;20053;-81
2022/12/27 14:47:38;;;;;;;5.50;1.20;;;9.80;99.90;;;;;;4889392;29;20052;-81
2022/12/27 14:50:18;;;;;;;3.00;1.20;;;9.70;99.90;;;;;;4891520;29;20062;-82
2022/12/27 14:53:03;;;;;;;1.98;1.25;;;9.70;99.90;;;;;;4896655;29;20132;-82
2022/12/27 14:55:47;;;;;;;6.47;1.67;;;9.60;99.90;;;;;;4889985;29;20060;-82
2022/12/27 14:58:41;;;;;;;10.02;2.72;;;9.60;99.90;;;;;;4896339;29;20056;-81
2022/12/27 15:01:38;;;;;;;4.55;1.50;;;9.60;99.90;;;;;;4907220;29;20472;-82
2022/12/27 15:04:33;;;;;;;3.72;1.40;;;9.50;99.90;;;;;;4894181;29;20058;-82
2022/12/27 15:07:22;;;;;;;5.82;1.20;;;9.50;99.90;;;;;;4905838;29;20059;-82
2022/12/27 15:10:03;;;;;;;4.20;1.33;;;9.50;99.90;;;;;;4899138;29;20063;-81
2022/12/27 15:12:41;;;;;;;3.42;1.48;;;9.40;99.90;;;;;;4893205;29;20483;-82